This is the latest recevied weather packets stored in our database for station/object KG4GJX. If no packets are shown the sender has not sent any weather packets the latest 10 day(s).
| Time | Temp. | Humidity | Pressure | Rain* | Wind** | Luminosity | Snow |
|---|---|---|---|---|---|---|---|
| 1788130120 | 33.33° C | 56% | 1019.9 hPa | 0 mm | - | - | - |
| 1788129458 | 33.89° C | 52% | 1019.6 hPa | 0 mm | - | - | - |
| 1788128796 | 34.44° C | 51% | 1019.9 hPa | 0 mm | - | - | - |
| 1788128133 | 35° C | 51% | 1019.9 hPa | 0 mm | - | - | - |
| 1788127470 | 35.56° C | 50% | 1019.9 hPa | 0 mm | - | - | - |
| 1788126808 | 35.56° C | 50% | 1019.9 hPa | 0 mm | - | - | - |
| 1788126145 | 35° C | 46% | 1019.9 hPa | 0 mm | - | - | - |
| 1788125483 | 35° C | 48% | 1019.9 hPa | 0 mm | - | - | - |
| 1788124820 | 35° C | 47% | 1019.9 hPa | 0 mm | - | - | - |
| 1788124157 | 35° C | 46% | 1019.9 hPa | 0 mm | - | - | - |
| 1788123495 | 33.89° C | 51% | 1019.9 hPa | 0 mm | - | - | - |
| 1788122832 | 32.78° C | 56% | 1019.9 hPa | 0 mm | - | - | - |
| 1788122170 | 32.78° C | 54% | 1020.3 hPa | 0 mm | - | - | - |
| 1788121507 | 33.89° C | 49% | 1020.3 hPa | 0 mm | - | - | - |
| 1788120845 | 35° C | 50% | 1020.3 hPa | 0 mm | - | - | - |
| 1788120183 | 34.44° C | 49% | 1020.6 hPa | 0 mm | - | - | - |
| 1788119520 | 33.89° C | 53% | 1020.6 hPa | 0 mm | - | - | - |
| 1788118858 | 33.33° C | 54% | 1020.6 hPa | 0 mm | - | - | - |
| 1788118195 | 33.33° C | 54% | 1020.6 hPa | 0 mm | - | - | - |
| 1788117533 | 32.78° C | 57% | 1020.9 hPa | 0 mm | - | - | - |
| 1788116870 | 33.33° C | 52% | 1021.3 hPa | 0 mm | - | - | - |
| 1788116208 | 33.33° C | 52% | 1021.3 hPa | 0 mm | - | - | - |
| 1788115545 | 32.78° C | 59% | 1021.3 hPa | 0 mm | - | - | - |
| 1788114883 | 32.22° C | 55% | 1021.6 hPa | 0 mm | - | - | - |
| 1788114221 | 32.22° C | 56% | 1021.6 hPa | 0 mm | - | - | - |
* Rain latest hour (hover to see other rain measurements)
** Current wind speed in m/s (hover to see current wind gust speed)